Time;durP1;ratioP1;P1;durP2;ratioP2;P2;SDS_P1;SDS_P2;PMS_P1;PMS_P2;Temp;Humidity;BMP_temperature;BMP_pressure;BME280_temperature;BME280_humidity;BME280_pressure;Samples;Min_cycle;Max_cycle;Signal;HPM_P1;HPM_P2
2022/06/10 00:01:24;;;;;;;6.38;2.00;;;17.00;94.40;;;;;;5030636;28;20041;-86
2022/06/10 00:03:50;;;;;;;5.63;1.88;;;17.00;94.60;;;;;;5030987;28;20044;-88
2022/06/10 00:06:34;;;;;;;7.97;2.50;;;17.00;94.30;;;;;;5029804;28;20348;-87
2022/06/10 00:09:00;;;;;;;3.60;1.88;;;16.90;94.10;;;;;;5030678;28;20049;-86
2022/06/10 00:11:26;;;;;;;6.40;1.70;;;16.80;94.20;;;;;;5030573;28;20025;-85
2022/06/10 00:13:51;;;;;;;6.03;2.22;;;16.80;94.00;;;;;;5030397;28;20034;-87
2022/06/10 00:16:35;;;;;;;6.05;1.88;;;16.80;94.20;;;;;;5031848;28;20037;-86
2022/06/10 00:19:01;;;;;;;4.68;1.88;;;16.90;94.20;;;;;;5034552;28;20134;-86
2022/06/10 00:21:27;;;;;;;6.03;2.45;;;16.80;94.40;;;;;;5035002;28;20072;-85
2022/06/10 00:23:53;;;;;;;5.13;2.13;;;16.80;94.40;;;;;;5034132;28;20037;-86
2022/06/10 00:26:27;;;;;;;9.80;3.05;;;16.70;94.60;;;;;;5034218;28;20041;-85
2022/06/10 00:28:53;;;;;;;8.27;2.55;;;16.60;94.60;;;;;;5034852;28;20351;-86
2022/06/10 00:31:31;;;;;;;12.15;2.80;;;16.60;94.80;;;;;;5034091;28;20486;-88
2022/06/10 00:33:56;;;;;;;10.43;2.45;;;16.50;94.80;;;;;;5032903;28;20041;-87
2022/06/10 00:36:28;;;;;;;8.88;2.03;;;16.40;95.00;;;;;;5034663;28;20021;-86
2022/06/10 00:38:54;;;;;;;10.68;2.15;;;16.40;95.10;;;;;;5034519;28;20364;-86
2022/06/10 00:41:43;;;;;;;8.30;2.90;;;16.40;95.10;;;;;;5034055;28;20029;-86
2022/06/10 00:44:32;;;;;;;7.65;1.90;;;16.30;95.20;;;;;;5033292;28;20029;-87
2022/06/10 00:46:58;;;;;;;8.10;2.00;;;16.30;95.20;;;;;;5034814;28;20129;-85
2022/06/10 00:49:25;;;;;;;4.97;1.67;;;16.20;95.50;;;;;;5033686;28;20372;-87
2022/06/10 00:51:54;;;;;;;5.40;1.58;;;16.20;95.40;;;;;;5034066;28;20026;-85
2022/06/10 00:54:33;;;;;;;5.60;1.75;;;16.10;95.40;;;;;;5033804;28;20060;-86
2022/06/10 00:57:09;;;;;;;6.03;1.65;;;16.10;95.50;;;;;;5034098;28;20164;-89
2022/06/10 00:59:41;;;;;;;7.38;1.40;;;16.00;95.70;;;;;;5034617;28;20117;-88
2022/06/10 01:02:19;;;;;;;4.78;1.10;;;16.00;95.70;;;;;;5034547;28;20091;-89
2022/06/10 01:04:46;;;;;;;8.10;1.73;;;16.00;95.70;;;;;;5033358;28;20025;-89
2022/06/10 01:07:16;;;;;;;3.35;1.30;;;15.90;95.70;;;;;;5034097;28;20101;-88
2022/06/10 01:09:43;;;;;;;5.95;1.40;;;15.90;95.80;;;;;;5033053;28;20120;-87
2022/06/10 01:12:22;;;;;;;4.03;1.52;;;15.90;95.90;;;;;;5033244;28;20049;-86
2022/06/10 01:14:57;;;;;;;11.07;1.77;;;15.80;96.00;;;;;;5034113;28;20359;-88
2022/06/10 01:17:50;;;;;;;5.68;1.50;;;15.70;96.10;;;;;;5033950;28;20480;-87
2022/06/10 01:20:23;;;;;;;4.90;1.83;;;15.70;96.30;;;;;;5033458;28;20113;-87
2022/06/10 01:23:07;;;;;;;4.82;1.52;;;15.70;96.30;;;;;;5032374;28;20363;-88
2022/06/10 01:25:33;;;;;;;4.25;1.45;;;15.70;96.40;;;;;;5033914;28;20029;-89
2022/06/10 01:28:31;;;;;;;5.55;1.40;;;15.60;96.50;;;;;;5033265;28;20033;-88
2022/06/10 01:31:24;;;;;;;6.80;1.95;;;15.60;96.50;;;;;;5033415;28;20379;-87
2022/06/10 01:34:14;;;;;;;3.97;1.58;;;15.70;96.70;;;;;;5034777;28;20100;-90
2022/06/10 01:36:58;;;;;;;5.75;1.23;;;15.60;96.60;;;;;;5034056;28;20482;-89
2022/06/10 01:39:53;;;;;;;6.00;1.48;;;15.60;96.70;;;;;;5034345;28;20052;-88
2022/06/10 01:42:36;;;;;;;10.30;2.15;;;15.50;96.80;;;;;;5035667;28;20091;-88
2022/06/10 01:45:34;;;;;;;8.10;1.35;;;15.50;96.70;;;;;;5036716;28;20060;-86
2022/06/10 01:48:08;;;;;;;;;;;15.60;96.60;;;;;;5032469;28;20072;-85
2022/06/10 01:50:56;;;;;;;6.47;1.80;;;15.60;96.80;;;;;;5034189;28;20044;-83
2022/06/10 01:53:43;;;;;;;;;;;15.50;96.80;;;;;;5034720;28;20113;-88
2022/06/10 01:56:34;;;;;;;7.18;2.00;;;15.50;97.00;;;;;;5036379;28;19929;-89
2022/06/10 01:59:08;;;;;;;5.82;1.27;;;15.50;97.10;;;;;;5037882;28;20092;-89
2022/06/10 02:01:45;;;;;;;5.78;1.70;;;15.60;97.10;;;;;;5038922;28;20120;-87
2022/06/10 02:04:17;;;;;;;4.57;1.67;;;15.50;97.10;;;;;;5039396;28;20029;-89
2022/06/10 02:07:03;;;;;;;4.15;1.35;;;15.50;97.20;;;;;;5037717;28;20048;-87
2022/06/10 02:09:47;;;;;;;7.78;1.50;;;15.50;97.20;;;;;;5038147;28;20052;-88
2022/06/10 02:12:27;;;;;;;4.30;1.58;;;15.40;97.30;;;;;;5042991;28;20192;-86
2022/06/10 02:15:16;;;;;;;4.07;1.38;;;15.40;97.40;;;;;;5041049;28;20062;-88
2022/06/10 02:17:58;;;;;;;7.18;1.35;;;15.40;97.40;;;;;;5039236;28;20136;-88
2022/06/10 02:20:27;;;;;;;6.85;1.70;;;15.40;97.40;;;;;;5038831;28;20056;-88
2022/06/10 02:22:56;;;;;;;4.80;1.60;;;15.40;97.40;;;;;;5035763;28;20060;-87
2022/06/10 02:25:33;;;;;;;8.13;1.75;;;15.30;97.40;;;;;;5035210;28;20037;-88
2022/06/10 02:28:03;;;;;;;4.68;1.27;;;15.30;97.30;;;;;;5032519;28;20359;-88
2022/06/10 02:30:51;;;;;;;7.95;1.38;;;15.30;97.40;;;;;;5033169;28;20049;-87
2022/06/10 02:33:17;;;;;;;6.35;1.73;;;15.30;97.60;;;;;;5032794;28;20538;-88
2022/06/10 02:35:50;;;;;;;4.32;1.40;;;15.20;97.60;;;;;;5032580;28;20425;-87
2022/06/10 02:38:43;;;;;;;5.50;1.90;;;15.20;97.50;;;;;;5032601;28;20033;-87
2022/06/10 02:41:31;;;;;;;6.63;1.80;;;15.20;97.40;;;;;;5031283;28;20029;-87
2022/06/10 02:44:11;;;;;;;6.47;1.58;;;15.20;97.50;;;;;;5031209;28;20364;-88
2022/06/10 02:47:09;;;;;;;10.15;1.77;;;15.10;97.70;;;;;;5031896;28;20437;-87
2022/06/10 02:49:35;;;;;;;;;;;15.00;97.90;;;;;;5032149;28;20360;-88
2022/06/10 02:52:01;;;;;;;5.00;1.42;;;15.00;97.90;;;;;;5031577;28;19905;-87
2022/06/10 02:54:36;;;;;;;9.48;1.80;;;15.00;97.90;;;;;;5031442;28;20103;-85
2022/06/10 02:57:27;;;;;;;4.07;1.50;;;14.90;98.00;;;;;;5031124;28;20121;-85
2022/06/10 03:03:16;;;;;;;8.23;1.75;;;15.00;98.00;;;;;;5032225;28;20044;-86
2022/06/10 03:05:57;;;;;;;8.32;1.58;;;14.90;98.00;;;;;;5023436;28;20022;-89
2022/06/10 03:08:32;;;;;;;2.67;1.35;;;14.90;98.10;;;;;;5032070;28;20038;-87
2022/06/10 03:11:50;;;;;;;8.80;1.90;;;14.80;98.10;;;;;;5031864;28;20030;-87
2022/06/10 03:14:41;;;;;;;7.22;1.52;;;14.80;98.10;;;;;;5019853;28;20061;-88
2022/06/10 03:17:42;;;;;;;6.18;1.45;;;14.70;98.30;;;;;;5032135;28;20029;-89
2022/06/10 03:20:16;;;;;;;7.50;1.73;;;14.60;98.30;;;;;;5032067;28;20037;-85
2022/06/10 03:23:10;;;;;;;2.30;1.20;;;14.60;98.30;;;;;;5030989;28;20026;-85
2022/06/10 03:25:39;;;;;;;5.43;1.70;;;14.60;98.40;;;;;;5031841;28;20026;-86
2022/06/10 03:28:26;;;;;;;4.78;1.55;;;14.60;98.50;;;;;;5031055;28;20049;-87
2022/06/10 03:30:57;;;;;;;13.77;3.97;;;14.50;98.60;;;;;;5031320;28;20351;-82
2022/06/10 03:34:03;;;;;;;4.53;1.70;;;14.50;98.60;;;;;;5030602;28;20075;-86
2022/06/10 03:36:34;;;;;;;6.25;1.88;;;14.50;98.80;;;;;;5031022;28;20041;-88
2022/06/10 03:39:01;;;;;;;5.82;1.92;;;14.60;98.90;;;;;;5031166;28;20057;-87
2022/06/10 03:41:34;;;;;;;5.30;2.07;;;14.60;98.90;;;;;;5031395;28;20053;-86
2022/06/10 03:44:03;;;;;;;2.88;1.50;;;14.50;98.90;;;;;;5031162;28;20046;-87
2022/06/10 03:46:33;;;;;;;1.90;1.48;;;14.60;98.80;;;;;;5030820;28;20033;-86
2022/06/10 03:49:03;;;;;;;4.07;1.92;;;14.60;98.90;;;;;;5030860;28;20037;-87
2022/06/10 03:51:29;;;;;;;6.00;1.73;;;14.60;98.80;;;;;;5032980;28;20508;-86
2022/06/10 03:53:55;;;;;;;6.53;1.50;;;14.50;98.90;;;;;;5034230;28;20026;-86
2022/06/10 03:56:23;;;;;;;5.05;1.45;;;14.50;99.00;;;;;;5035332;28;20540;-90
2022/06/10 03:58:49;;;;;;;6.03;1.63;;;14.50;99.00;;;;;;5035660;28;20036;-88
2022/06/10 04:01:27;;;;;;;6.35;1.67;;;14.50;99.10;;;;;;5035236;28;20029;-88
2022/06/10 04:03:52;;;;;;;6.00;1.55;;;14.50;99.20;;;;;;5035206;28;20029;-88
2022/06/10 04:06:21;;;;;;;4.03;1.73;;;14.50;99.10;;;;;;5034756;28;20040;-87
2022/06/10 04:08:48;;;;;;;12.38;2.45;;;14.50;99.10;;;;;;5035408;28;20033;-88
2022/06/10 04:11:17;;;;;;;3.88;1.85;;;14.60;99.40;;;;;;5035863;28;20165;-88
2022/06/10 04:13:44;;;;;;;4.65;1.85;;;14.60;99.30;;;;;;5035466;28;20022;-88
2022/06/10 04:16:28;;;;;;;7.57;1.90;;;14.60;99.30;;;;;;5035223;28;20040;-87
2022/06/10 04:18:54;;;;;;;5.22;2.05;;;14.60;99.30;;;;;;5034459;28;20022;-88
2022/06/10 04:21:58;;;;;;;3.17;1.67;;;14.70;99.30;;;;;;5034792;28;20147;-88
2022/06/10 04:24:25;;;;;;;4.38;2.05;;;14.70;99.40;;;;;;5034146;28;20091;-88
2022/06/10 04:26:51;;;;;;;4.45;1.92;;;14.70;99.40;;;;;;5033541;28;20041;-88
2022/06/10 04:29:17;;;;;;;5.85;1.58;;;14.70;99.40;;;;;;5034601;28;20037;-87
2022/06/10 04:31:48;;;;;;;5.75;1.83;;;14.80;99.40;;;;;;5034338;28;20045;-87
2022/06/10 04:34:14;;;;;;;3.72;1.70;;;14.90;99.40;;;;;;5034061;28;20048;-86
2022/06/10 04:36:40;;;;;;;5.85;2.13;;;14.90;99.40;;;;;;5035184;28;20021;-86
2022/06/10 04:39:06;;;;;;;6.53;2.47;;;14.90;99.40;;;;;;5034385;28;20036;-87
2022/06/10 04:41:33;;;;;;;15.90;2.17;;;15.00;99.60;;;;;;5034566;28;20520;-88
2022/06/10 04:43:58;;;;;;;10.13;2.17;;;15.00;99.70;;;;;;5034987;28;20487;-88
2022/06/10 04:46:35;;;;;;;3.80;1.83;;;15.10;99.80;;;;;;5034630;28;20032;-88
2022/06/10 04:49:01;;;;;;;6.97;2.13;;;15.20;99.70;;;;;;5035653;28;20048;-88
2022/06/10 04:51:27;;;;;;;6.72;2.30;;;15.30;99.50;;;;;;5034349;28;20061;-87
2022/06/10 04:53:53;;;;;;;5.38;2.03;;;15.30;99.60;;;;;;5034047;28;20073;-86
2022/06/10 04:57:10;;;;;;;6.13;2.40;;;15.40;99.60;;;;;;5032385;28;20041;-86
2022/06/10 04:59:35;;;;;;;7.15;2.30;;;15.60;99.80;;;;;;5033679;28;20060;-86
2022/06/10 05:02:01;;;;;;;8.23;2.53;;;15.70;99.70;;;;;;5033396;28;20470;-86
2022/06/10 05:04:27;;;;;;;8.15;3.10;;;15.80;99.70;;;;;;5033131;28;20459;-88
2022/06/10 05:06:52;;;;;;;7.90;3.20;;;15.80;99.60;;;;;;5035021;28;20336;-87
2022/06/10 05:09:18;;;;;;;9.40;3.72;;;15.90;99.80;;;;;;5035076;28;20021;-87
2022/06/10 05:11:44;;;;;;;7.32;3.00;;;16.00;99.70;;;;;;5034175;28;20440;-86
2022/06/10 05:14:10;;;;;;;6.97;3.10;;;16.10;99.70;;;;;;5033437;28;20048;-85
2022/06/10 05:16:36;;;;;;;6.28;2.95;;;16.20;99.60;;;;;;5032771;28;20180;-86
2022/06/10 05:19:02;;;;;;;8.75;4.32;;;16.20;99.40;;;;;;5034127;28;20396;-88
2022/06/10 05:22:19;;;;;;;9.52;3.45;;;16.30;99.50;;;;;;5033938;28;20013;-86
2022/06/10 05:24:44;;;;;;;9.82;4.30;;;16.40;99.40;;;;;;5032819;28;20037;-86
2022/06/10 05:27:10;;;;;;;9.15;3.88;;;16.50;99.40;;;;;;5033293;28;20345;-85
2022/06/10 05:29:36;;;;;;;6.57;3.80;;;16.60;99.30;;;;;;5033164;28;20297;-85
2022/06/10 05:32:15;;;;;;;11.93;4.15;;;16.70;99.30;;;;;;5033698;28;20046;-88
2022/06/10 05:34:47;;;;;;;9.63;4.40;;;16.80;99.10;;;;;;5032930;28;20279;-88
2022/06/10 05:37:20;;;;;;;9.00;4.03;;;16.90;98.90;;;;;;5033429;28;20040;-89
2022/06/10 05:39:47;;;;;;;8.23;4.03;;;17.10;98.80;;;;;;5033859;28;20026;-90
2022/06/10 05:42:38;;;;;;;8.13;4.05;;;17.20;98.70;;;;;;5033677;28;20060;-89
2022/06/10 05:45:04;;;;;;;9.05;4.22;;;17.20;98.60;;;;;;5032192;28;20037;-86
2022/06/10 05:47:33;;;;;;;9.82;3.80;;;17.20;98.50;;;;;;5032238;28;20034;-87
2022/06/10 05:50:02;;;;;;;9.63;4.15;;;17.40;98.50;;;;;;5032916;28;20037;-90
2022/06/10 05:52:30;;;;;;;11.90;4.30;;;17.70;98.20;;;;;;5033140;28;20046;-89
2022/06/10 05:54:59;;;;;;;8.48;4.13;;;17.90;97.70;;;;;;5033274;28;20055;-89
2022/06/10 05:57:25;;;;;;;9.35;4.22;;;18.20;97.50;;;;;;5033037;28;20358;-88
2022/06/10 05:59:52;;;;;;;9.45;3.47;;;18.40;97.00;;;;;;5031490;28;20061;-85
2022/06/10 06:02:20;;;;;;;8.38;4.40;;;18.50;96.80;;;;;;5032558;28;20029;-87
2022/06/10 06:04:46;;;;;;;8.32;3.88;;;18.60;96.60;;;;;;5032450;28;20065;-78
2022/06/10 06:07:17;;;;;;;9.57;3.72;;;18.60;96.50;;;;;;5031556;28;20045;-80
2022/06/10 06:09:43;;;;;;;8.43;3.92;;;18.50;96.50;;;;;;5030895;28;20072;-81
2022/06/10 06:12:09;;;;;;;8.73;4.15;;;18.50;96.40;;;;;;5030832;28;20037;-81
2022/06/10 06:14:35;;;;;;;9.73;4.68;;;18.50;96.30;;;;;;5031191;28;20033;-82
2022/06/10 06:17:03;;;;;;;14.98;6.10;;;18.40;96.40;;;;;;5030240;28;20056;-81
2022/06/10 06:19:30;;;;;;;14.40;6.68;;;18.50;96.60;;;;;;5030355;28;20056;-82
2022/06/10 06:21:56;;;;;;;14.57;4.60;;;18.40;96.50;;;;;;5031270;28;20022;-79
2022/06/10 06:24:22;;;;;;;14.57;4.85;;;18.60;96.70;;;;;;5030526;28;20478;-77
2022/06/10 06:27:05;;;;;;;10.85;4.40;;;18.80;96.40;;;;;;5031180;28;20056;-78
2022/06/10 06:29:32;;;;;;;13.07;4.68;;;19.00;96.20;;;;;;5030994;28;20029;-79
2022/06/10 06:32:31;;;;;;;10.20;4.55;;;19.10;95.80;;;;;;5029883;28;20037;-79
2022/06/10 06:34:57;;;;;;;11.38;4.32;;;19.10;95.50;;;;;;5031081;28;20124;-77
2022/06/10 06:37:23;;;;;;;10.07;3.67;;;19.10;95.60;;;;;;5030990;28;20545;-79
2022/06/10 06:39:48;;;;;;;13.30;4.45;;;19.10;95.30;;;;;;5031357;28;20025;-79
2022/06/10 06:42:15;;;;;;;10.68;3.60;;;19.10;95.20;;;;;;5030970;28;20025;-78
2022/06/10 06:44:41;;;;;;;8.70;3.60;;;19.10;95.20;;;;;;5030543;28;20092;-79
2022/06/10 06:47:25;;;;;;;9.90;4.60;;;19.20;94.80;;;;;;5029940;28;20037;-80
2022/06/10 06:49:51;;;;;;;11.48;3.85;;;19.10;94.60;;;;;;5031554;28;20048;-81
2022/06/10 06:52:16;;;;;;;16.02;4.13;;;19.20;94.80;;;;;;5031402;28;20408;-80
2022/06/10 06:54:42;;;;;;;17.98;4.18;;;19.10;94.60;;;;;;5031691;28;20419;-80
2022/06/10 06:57:07;;;;;;;13.00;3.70;;;19.10;94.00;;;;;;5030714;28;20042;-79
2022/06/10 06:59:33;;;;;;;9.15;3.35;;;19.20;93.60;;;;;;5030919;28;20026;-79
2022/06/10 07:02:14;;;;;;;10.45;3.45;;;19.20;93.70;;;;;;5030495;28;20042;-77
2022/06/10 07:08:03;;;;;;;7.97;2.75;;;19.40;93.00;;;;;;5018612;28;20036;-79
2022/06/10 07:10:29;;;;;;;12.25;2.70;;;19.50;92.40;;;;;;5030599;28;20459;-81
2022/06/10 07:12:55;;;;;;;9.07;3.30;;;19.60;92.20;;;;;;5029944;28;20422;-79
2022/06/10 07:15:21;;;;;;;9.43;3.25;;;19.80;92.00;;;;;;5030964;28;20230;-79
2022/06/10 07:17:48;;;;;;;6.90;1.88;;;19.90;91.90;;;;;;5030360;28;20452;-81
2022/06/10 07:20:34;;;;;;;8.32;2.65;;;19.90;91.00;;;;;;5030468;28;20447;-81
2022/06/10 07:23:00;;;;;;;9.20;3.10;;;20.00;91.10;;;;;;5030166;28;20483;-79
2022/06/10 07:25:28;;;;;;;6.72;3.40;;;19.90;91.90;;;;;;5029190;28;20042;-81
2022/06/10 07:27:55;;;;;;;15.32;3.88;;;20.10;92.20;;;;;;5034514;28;20345;-78
2022/06/10 07:30:23;;;;;;;13.13;3.30;;;20.10;92.20;;;;;;5034566;28;20111;-78
2022/06/10 07:32:49;;;;;;;10.95;3.85;;;20.20;92.20;;;;;;5034297;28;20439;-78
2022/06/10 07:35:17;;;;;;;9.48;3.03;;;20.30;92.30;;;;;;5033116;28;20030;-77
2022/06/10 07:37:42;;;;;;;10.63;3.53;;;20.30;92.40;;;;;;5033459;28;20040;-78
2022/06/10 07:41:56;;;;;;;10.45;2.92;;;20.40;92.40;;;;;;5033938;28;20128;-78
2022/06/10 07:42:55;;;;;;;7.00;2.53;;;20.50;92.30;;;;;;5034361;28;20447;-76
2022/06/10 07:45:21;;;;;;;7.93;2.10;;;20.70;91.40;;;;;;5034513;28;20037;-79
2022/06/10 07:47:47;;;;;;;9.80;2.63;;;20.80;90.80;;;;;;5033954;28;20336;-78
2022/06/10 07:50:12;;;;;;;9.40;2.58;;;20.80;90.10;;;;;;5034245;28;20034;-78
2022/06/10 07:52:38;;;;;;;9.82;3.33;;;21.10;89.70;;;;;;5033619;28;20033;-78
2022/06/10 07:55:04;;;;;;;9.20;2.33;;;21.40;89.90;;;;;;5033609;28;20025;-79
2022/06/10 07:57:30;;;;;;;7.65;1.92;;;21.30;87.70;;;;;;5034269;28;20018;-78
2022/06/10 07:59:56;;;;;;;8.43;1.80;;;21.40;87.30;;;;;;5033949;28;20036;-78
2022/06/10 08:02:23;;;;;;;7.82;2.42;;;21.50;85.90;;;;;;5033794;28;20057;-78
2022/06/10 08:04:48;;;;;;;8.27;2.20;;;21.60;87.90;;;;;;5032315;28;20471;-75
2022/06/10 08:07:14;;;;;;;9.48;2.40;;;21.90;88.90;;;;;;5033456;28;20037;-77
2022/06/10 08:09:39;;;;;;;10.27;2.10;;;22.50;82.50;;;;;;5033762;28;20113;-79
2022/06/10 08:12:05;;;;;;;7.80;2.00;;;22.60;80.50;;;;;;5033929;28;20422;-78
2022/06/10 08:14:31;;;;;;;7.60;2.22;;;22.70;79.70;;;;;;5032585;28;20065;-80
2022/06/10 08:16:59;;;;;;;18.75;2.67;;;23.50;79.50;;;;;;5034283;28;20061;-76
2022/06/10 08:19:24;;;;;;;7.20;2.35;;;24.40;77.50;;;;;;5016740;28;20411;-80
2022/06/10 08:24:35;;;;;;;13.20;3.15;;;25.20;73.10;;;;;;5035403;28;20116;-80
2022/06/10 08:27:01;;;;;;;13.55;2.92;;;26.40;72.80;;;;;;5035317;28;20482;-78
2022/06/10 08:29:27;;;;;;;16.30;4.18;;;26.10;69.20;;;;;;5034194;28;20120;-78
2022/06/10 08:31:52;;;;;;;14.68;5.28;;;25.50;70.10;;;;;;5032370;28;20072;-78
2022/06/10 08:34:18;;;;;;;12.48;2.92;;;26.00;70.60;;;;;;5034304;28;20438;-75
2022/06/10 08:36:44;;;;;;;15.93;3.35;;;25.30;69.00;;;;;;5034098;28;20029;-77
2022/06/10 08:39:10;;;;;;;10.35;3.38;;;24.60;70.30;;;;;;5018615;28;20029;-80
2022/06/10 08:41:48;;;;;;;14.32;3.88;;;24.00;71.90;;;;;;5015731;28;20126;-77
2022/06/10 08:44:42;;;;;;;8.27;2.70;;;23.70;73.20;;;;;;5015847;28;20030;-75
2022/06/10 08:47:22;;;;;;;13.93;3.40;;;23.80;74.00;;;;;;5015987;28;20041;-77
2022/06/10 08:50:01;;;;;;;10.25;3.30;;;23.20;75.10;;;;;;5013116;28;20329;-76
2022/06/10 08:52:39;;;;;;;11.85;3.35;;;23.80;74.60;;;;;;5013641;28;20467;-78
2022/06/10 08:55:19;;;;;;;9.80;3.33;;;24.10;73.60;;;;;;5014185;28;20022;-79
2022/06/10 08:57:47;;;;;;;13.93;2.97;;;24.10;74.60;;;;;;5014047;28;20436;-81
2022/06/10 09:00:12;;;;;;;;;;;23.70;74.20;;;;;;5013921;28;20045;-78
2022/06/10 09:02:44;;;;;;;13.27;2.70;;;23.70;74.80;;;;;;5011926;28;19956;-79
2022/06/10 09:05:49;;;;;;;11.38;2.95;;;23.50;75.60;;;;;;5013099;28;20045;-81
2022/06/10 09:08:21;;;;;;;15.20;3.08;;;24.40;75.70;;;;;;5012044;28;20112;-72
2022/06/10 09:10:55;;;;;;;6.93;2.50;;;25.50;74.10;;;;;;5012808;28;20065;-75
2022/06/10 09:13:43;;;;;;;11.13;2.67;;;26.20;71.40;;;;;;5012840;28;20045;-76
2022/06/10 09:16:23;;;;;;;7.95;2.33;;;25.80;70.40;;;;;;5012364;28;20470;-79
2022/06/10 09:19:10;;;;;;;13.13;3.80;;;26.40;70.50;;;;;;5012881;28;20401;-76
2022/06/10 09:21:56;;;;;;;7.88;2.75;;;26.70;67.80;;;;;;5011715;28;20334;-75
2022/06/10 09:24:42;;;;;;;6.47;2.30;;;26.60;66.10;;;;;;5012694;28;20030;-74
2022/06/10 09:27:30;;;;;;;7.55;2.17;;;26.30;66.70;;;;;;5012399;28;20022;-75
2022/06/10 09:29:57;;;;;;;9.32;2.58;;;26.40;67.20;;;;;;5012221;28;20540;-74
2022/06/10 09:32:41;;;;;;;8.48;2.15;;;26.20;67.50;;;;;;5012348;28;20065;-75
2022/06/10 09:35:32;;;;;;;10.65;2.65;;;26.10;67.30;;;;;;5012120;28;20098;-74
2022/06/10 09:38:18;;;;;;;9.13;2.70;;;26.00;68.00;;;;;;5012180;28;20487;-75
2022/06/10 09:41:26;;;;;;;10.57;2.10;;;26.10;68.40;;;;;;5012084;28;20080;-75
2022/06/10 09:44:35;;;;;;;9.35;2.17;;;25.60;68.30;;;;;;5011833;28;20038;-76
2022/06/10 09:47:18;;;;;;;7.25;1.73;;;25.30;68.60;;;;;;5011799;28;20026;-76
2022/06/10 09:50:17;;;;;;;5.15;2.13;;;24.60;68.50;;;;;;5010872;28;20045;-76
2022/06/10 09:53:01;;;;;;;4.35;1.58;;;24.40;69.30;;;;;;5010377;28;20070;-74
2022/06/10 09:56:14;;;;;;;7.25;2.03;;;24.50;68.80;;;;;;5010681;28;20533;-76
2022/06/10 09:59:25;;;;;;;5.18;1.55;;;24.00;69.00;;;;;;5009287;28;20064;-76
2022/06/10 10:01:59;;;;;;;8.30;2.22;;;23.90;68.20;;;;;;4951197;28;20425;-78
2022/06/10 10:04:43;;;;;;;7.13;2.55;;;24.20;69.20;;;;;;4938384;28;20039;-75
2022/06/10 10:07:21;;;;;;;10.25;1.88;;;24.10;69.10;;;;;;4992886;28;20172;-75
2022/06/10 10:09:47;;;;;;;12.23;2.33;;;24.10;68.80;;;;;;5011690;28;20452;-76
2022/06/10 10:12:18;;;;;;;10.80;2.28;;;24.00;69.10;;;;;;5011402;28;20026;-75
2022/06/10 10:15:08;;;;;;;12.07;4.63;;;23.80;69.70;;;;;;5011117;28;20034;-76
2022/06/10 10:18:09;;;;;;;6.15;2.13;;;23.80;69.90;;;;;;5010094;28;20041;-76
2022/06/10 10:21:07;;;;;;;11.02;2.20;;;24.00;69.80;;;;;;5009955;28;20049;-77
2022/06/10 10:23:51;;;;;;;7.32;2.17;;;23.70;70.40;;;;;;5010806;28;20041;-81
2022/06/10 10:26:20;;;;;;;7.68;1.50;;;23.70;69.50;;;;;;5010636;28;20101;-81
2022/06/10 10:28:47;;;;;;;10.65;1.73;;;23.50;69.30;;;;;;5011944;28;20052;-73
2022/06/10 10:31:28;;;;;;;6.63;1.50;;;23.70;69.40;;;;;;5011077;28;20037;-75
2022/06/10 10:33:54;;;;;;;5.63;1.70;;;23.70;68.90;;;;;;5011212;28;20025;-81
2022/06/10 10:36:28;;;;;;;6.40;1.67;;;23.70;67.50;;;;;;5011809;28;20084;-80
2022/06/10 10:38:57;;;;;;;5.63;1.60;;;23.70;67.10;;;;;;5011246;28;20116;-82
2022/06/10 10:41:30;;;;;;;12.90;1.83;;;23.70;68.00;;;;;;5011247;28;20036;-78
2022/06/10 10:44:00;;;;;;;7.90;1.63;;;23.80;67.10;;;;;;5011164;28;20041;-80
2022/06/10 10:46:33;;;;;;;8.65;1.70;;;23.80;67.50;;;;;;5011015;28;20109;-77
2022/06/10 10:49:02;;;;;;;15.50;2.17;;;23.90;68.10;;;;;;5010818;28;20373;-74
2022/06/10 10:51:38;;;;;;;4.55;1.90;;;23.70;67.90;;;;;;5011107;28;20415;-75
2022/06/10 10:54:19;;;;;;;3.90;1.38;;;23.60;69.00;;;;;;5010642;28;20480;-73
2022/06/10 10:56:47;;;;;;;6.50;1.40;;;23.30;69.40;;;;;;5010598;28;20057;-75
2022/06/10 10:59:25;;;;;;;4.65;1.50;;;23.40;70.00;;;;;;5011038;28;20080;-75
2022/06/10 11:01:54;;;;;;;6.32;1.65;;;23.20;70.00;;;;;;5011257;28;20042;-77
2022/06/10 11:04:31;;;;;;;6.72;1.40;;;23.30;70.30;;;;;;5010495;28;20030;-80
2022/06/10 11:07:14;;;;;;;6.43;1.80;;;23.20;71.20;;;;;;5010531;28;20082;-83
2022/06/10 11:09:44;;;;;;;8.50;2.60;;;23.10;70.90;;;;;;5011677;28;20411;-78
2022/06/10 11:12:17;;;;;;;10.98;2.60;;;23.00;71.70;;;;;;5009631;28;20030;-77
2022/06/10 11:14:47;;;;;;;8.00;2.10;;;22.90;72.60;;;;;;5010385;28;20038;-79
2022/06/10 11:17:13;;;;;;;13.57;2.60;;;22.50;73.50;;;;;;5010353;28;20030;-77
2022/06/10 11:19:40;;;;;;;6.28;1.98;;;22.80;74.10;;;;;;5010768;28;20116;-77
2022/06/10 11:22:24;;;;;;;8.07;2.22;;;22.90;73.80;;;;;;5009332;28;20061;-78
2022/06/10 11:25:02;;;;;;;9.10;2.17;;;23.00;74.30;;;;;;5010815;28;20399;-75
2022/06/10 11:27:31;;;;;;;11.27;1.77;;;23.00;73.90;;;;;;5010692;28;20355;-77
2022/06/10 11:30:00;;;;;;;13.27;2.40;;;23.00;74.10;;;;;;5010539;28;20102;-77
2022/06/10 11:32:36;;;;;;;6.30;1.63;;;23.10;74.10;;;;;;5010686;28;20034;-79
2022/06/10 11:35:20;;;;;;;5.82;1.92;;;23.20;73.70;;;;;;5009706;28;20025;-75
2022/06/10 11:37:49;;;;;;;10.18;1.58;;;23.20;73.90;;;;;;5009287;28;20056;-78
2022/06/10 11:40:20;;;;;;;4.72;1.58;;;23.00;73.50;;;;;;5010387;28;20452;-77
2022/06/10 11:42:51;;;;;;;9.05;1.95;;;22.90;73.20;;;;;;5011262;28;20018;-76
2022/06/10 11:45:23;;;;;;;12.40;2.33;;;23.10;72.80;;;;;;5010866;28;20180;-77
2022/06/10 11:48:28;;;;;;;5.03;1.45;;;23.20;73.90;;;;;;5009120;28;20113;-74
2022/06/10 11:51:36;;;;;;;13.82;7.55;;;23.60;73.10;;;;;;5003285;28;20034;-75
2022/06/10 11:54:29;;;;;;;12.40;3.53;;;23.60;72.70;;;;;;5003295;28;20363;-76
2022/06/10 12:00:00;;;;;;;10.32;1.80;;;23.70;72.50;;;;;;5009825;28;20621;-74
2022/06/10 12:02:59;;;;;;;7.32;1.42;;;23.80;72.80;;;;;;5009772;28;20033;-75
2022/06/10 12:05:43;;;;;;;7.30;1.67;;;23.60;71.60;;;;;;5008359;28;20056;-75
2022/06/10 12:08:20;;;;;;;9.82;1.60;;;23.70;71.50;;;;;;5010087;28;20353;-75
2022/06/10 12:11:00;;;;;;;5.47;1.30;;;23.90;71.10;;;;;;5011907;28;20419;-75
2022/06/10 12:13:30;;;;;;;8.30;1.83;;;24.20;70.20;;;;;;5012708;28;20468;-77
2022/06/10 12:15:58;;;;;;;6.65;1.55;;;24.10;70.60;;;;;;5012315;28;20030;-74
2022/06/10 12:18:29;;;;;;;6.35;1.33;;;24.10;69.30;;;;;;5014038;28;20022;-77
2022/06/10 12:21:03;;;;;;;6.70;2.10;;;24.30;69.50;;;;;;5012220;28;20451;-76
2022/06/10 12:23:35;;;;;;;4.15;1.10;;;24.40;69.40;;;;;;5013329;28;20042;-76
2022/06/10 12:26:29;;;;;;;8.60;1.35;;;24.50;69.00;;;;;;5012437;28;20030;-81
2022/06/10 12:29:16;;;;;;;6.78;2.20;;;24.50;68.20;;;;;;5013648;28;20084;-81
2022/06/10 12:31:53;;;;;;;5.05;1.30;;;24.50;68.40;;;;;;5011734;28;20108;-76
2022/06/10 12:34:23;;;;;;;5.38;1.38;;;24.50;68.00;;;;;;5013394;28;20044;-75
2022/06/10 12:37:04;;;;;;;6.28;1.25;;;24.60;67.80;;;;;;5013595;28;20025;-76
2022/06/10 12:39:45;;;;;;;3.17;1.23;;;24.70;68.20;;;;;;5013175;28;20042;-75
2022/06/10 12:42:17;;;;;;;5.18;1.35;;;24.80;68.10;;;;;;5013325;28;20030;-77
2022/06/10 12:44:52;;;;;;;4.03;1.00;;;24.60;68.00;;;;;;5011828;28;20033;-75
2022/06/10 12:47:36;;;;;;;6.22;1.17;;;24.60;68.00;;;;;;5013108;28;20026;-75
2022/06/10 12:50:16;;;;;;;8.55;2.03;;;24.70;68.90;;;;;;5013096;28;20040;-74
2022/06/10 12:52:54;;;;;;;2.17;0.82;;;24.90;68.60;;;;;;5012729;28;20168;-76
2022/06/10 12:55:56;;;;;;;3.78;1.40;;;24.70;66.90;;;;;;5011832;28;20367;-75
2022/06/10 12:58:37;;;;;;;8.13;1.63;;;24.70;66.90;;;;;;5010653;28;20038;-74
2022/06/10 13:01:21;;;;;;;5.78;1.42;;;24.70;68.00;;;;;;5012535;28;20042;-77
2022/06/10 13:03:50;;;;;;;2.45;0.95;;;24.60;68.90;;;;;;5013348;28;20018;-76
2022/06/10 13:06:45;;;;;;;10.90;1.45;;;24.50;68.50;;;;;;5012599;28;20088;-77
2022/06/10 13:09:11;;;;;;;4.60;0.90;;;24.30;68.00;;;;;;5011087;28;20084;-77
2022/06/10 13:12:01;;;;;;;4.00;1.17;;;24.30;68.50;;;;;;5012548;28;20026;-76
2022/06/10 13:14:29;;;;;;;2.33;0.88;;;24.30;68.70;;;;;;5012007;28;20041;-76
2022/06/10 13:16:58;;;;;;;5.93;1.05;;;24.40;68.90;;;;;;5012451;28;20025;-74
2022/06/10 13:19:35;;;;;;;5.68;0.90;;;24.40;69.00;;;;;;5011450;28;20387;-73
2022/06/10 13:22:32;;;;;;;3.60;1.27;;;24.10;69.30;;;;;;5012742;28;20025;-75
2022/06/10 13:24:57;;;;;;;4.55;1.40;;;24.20;69.80;;;;;;5010685;28;20045;-76
2022/06/10 13:27:33;;;;;;;4.68;1.40;;;24.20;69.70;;;;;;5012446;28;20305;-76
2022/06/10 13:30:04;;;;;;;7.82;3.95;;;24.10;69.70;;;;;;5012230;28;20141;-80
2022/06/10 13:32:30;;;;;;;7.55;1.63;;;24.20;70.20;;;;;;5012455;28;20577;-81
2022/06/10 13:35:01;;;;;;;3.75;0.98;;;24.20;70.60;;;;;;5012498;28;20038;-73
2022/06/10 13:37:31;;;;;;;6.57;1.10;;;24.20;70.90;;;;;;5012236;28;20467;-73
2022/06/10 13:40:01;;;;;;;5.90;1.38;;;24.10;71.30;;;;;;5011756;28;20026;-74